Time;durP1;ratioP1;P1;durP2;ratioP2;P2;SDS_P1;SDS_P2;PMS_P1;PMS_P2;Temp;Humidity;BMP_temperature;BMP_pressure;BME280_temperature;BME280_humidity;BME280_pressure;Samples;Min_cycle;Max_cycle;Signal;HPM_P1;HPM_P2
2021/07/12 00:00:33;;;;;;;9.52;5.72;;;18.30;70.20;;;;;;5038289;28;20022;-72
2021/07/12 00:03:00;;;;;;;7.38;5.53;;;18.30;70.30;;;;;;5038266;28;20111;-71
2021/07/12 00:05:26;;;;;;;9.18;6.32;;;18.30;70.30;;;;;;5038052;28;20030;-71
2021/07/12 00:07:53;;;;;;;8.63;6.35;;;18.30;70.10;;;;;;5038232;28;20033;-71
2021/07/12 00:10:22;;;;;;;9.23;5.65;;;18.30;69.90;;;;;;5037931;28;20468;-71
2021/07/12 00:12:49;;;;;;;10.05;5.95;;;18.30;69.70;;;;;;5037580;28;20057;-71
2021/07/12 00:15:16;;;;;;;10.73;5.78;;;18.20;69.50;;;;;;5038277;28;20104;-71
2021/07/12 00:17:42;;;;;;;8.13;5.40;;;18.20;69.40;;;;;;5037932;28;20033;-72
2021/07/12 00:20:09;;;;;;;8.02;5.25;;;18.10;69.20;;;;;;5037421;28;20080;-72
2021/07/12 00:22:36;;;;;;;7.50;5.53;;;18.10;69.30;;;;;;5037807;28;20089;-72
2021/07/12 00:25:03;;;;;;;8.45;5.57;;;18.10;69.00;;;;;;5037712;28;20030;-72
2021/07/12 00:27:29;;;;;;;8.25;5.43;;;18.00;68.80;;;;;;5037710;28;20041;-72
2021/07/12 00:29:57;;;;;;;9.82;5.93;;;18.00;68.70;;;;;;5037883;28;20388;-72
2021/07/12 00:32:22;;;;;;;8.38;5.75;;;18.00;68.60;;;;;;5037599;28;20487;-72
2021/07/12 00:34:48;;;;;;;8.65;5.78;;;17.90;68.50;;;;;;5037706;28;20021;-72
2021/07/12 00:37:14;;;;;;;7.90;5.30;;;17.90;68.50;;;;;;5037557;28;20029;-71
2021/07/12 00:39:40;;;;;;;9.20;5.78;;;17.90;68.50;;;;;;5037697;28;20485;-72
2021/07/12 00:42:06;;;;;;;10.68;5.55;;;17.80;68.40;;;;;;5052716;28;20064;-72
2021/07/12 00:44:32;;;;;;;6.60;4.97;;;17.80;68.20;;;;;;5037729;28;20022;-71
2021/07/12 00:46:58;;;;;;;6.80;5.28;;;17.80;68.10;;;;;;5037334;28;20033;-71
2021/07/12 00:49:24;;;;;;;9.00;5.20;;;17.70;67.90;;;;;;5037322;28;20021;-72
2021/07/12 00:51:50;;;;;;;9.20;5.68;;;17.70;67.90;;;;;;5037283;28;20031;-72
2021/07/12 00:54:16;;;;;;;8.85;5.50;;;17.60;67.80;;;;;;5037668;28;20105;-72
2021/07/12 00:56:42;;;;;;;9.55;6.00;;;17.60;67.90;;;;;;5037204;28;20061;-72
2021/07/12 00:59:09;;;;;;;7.05;5.05;;;17.60;68.00;;;;;;5037512;28;20388;-72
2021/07/12 01:01:34;;;;;;;8.30;5.28;;;17.50;67.90;;;;;;5037254;28;20033;-72
2021/07/12 01:04:00;;;;;;;8.88;5.70;;;17.50;68.00;;;;;;5037370;28;20033;-72
2021/07/12 01:06:26;;;;;;;7.68;5.75;;;17.50;68.00;;;;;;5037269;28;20926;-72
2021/07/12 01:08:52;;;;;;;7.35;5.30;;;17.50;68.40;;;;;;5037419;28;20024;-72
2021/07/12 01:11:56;;;;;;;8.68;5.60;;;17.50;68.70;;;;;;5037064;28;20497;-72
2021/07/12 01:14:45;;;;;;;8.75;5.72;;;17.40;68.80;;;;;;5037266;28;20013;-72
2021/07/12 01:17:21;;;;;;;8.60;5.30;;;17.50;69.10;;;;;;5037399;28;20025;-72
2021/07/12 01:20:22;;;;;;;8.45;5.63;;;17.50;69.00;;;;;;5036708;28;20076;-71
2021/07/12 01:23:15;;;;;;;7.78;5.20;;;17.50;68.90;;;;;;5037291;28;20061;-71
2021/07/12 01:25:59;;;;;;;8.32;5.07;;;17.40;68.80;;;;;;5038695;28;20017;-71
2021/07/12 01:28:47;;;;;;;8.50;5.53;;;17.40;68.80;;;;;;5041389;28;20029;-71
2021/07/12 01:31:27;;;;;;;10.32;5.70;;;17.40;68.60;;;;;;5040867;28;20025;-72
2021/07/12 01:34:09;;;;;;;7.68;5.30;;;17.40;68.70;;;;;;5040986;28;20021;-72
2021/07/12 01:37:01;;;;;;;8.05;5.60;;;17.40;68.80;;;;;;5041264;28;20017;-72
2021/07/12 01:39:34;;;;;;;8.03;5.53;;;17.30;68.70;;;;;;5056174;28;20021;-71
2021/07/12 01:42:06;;;;;;;8.60;5.95;;;17.30;68.70;;;;;;5040775;28;20144;-71
2021/07/12 01:44:47;;;;;;;9.52;5.75;;;17.30;68.80;;;;;;5041202;28;20047;-72
2021/07/12 01:47:32;;;;;;;8.85;5.68;;;17.30;69.00;;;;;;5040759;28;20495;-71
2021/07/12 01:50:14;;;;;;;10.80;5.80;;;17.30;70.00;;;;;;5040578;28;20030;-71
2021/07/12 01:52:59;;;;;;;;;;;17.30;69.60;;;;;;5041393;28;20047;-71
2021/07/12 01:56:03;;;;;;;8.65;5.70;;;17.30;69.80;;;;;;5040422;28;19905;-71
2021/07/12 01:58:38;;;;;;;10.32;5.18;;;17.30;69.60;;;;;;5040650;28;20484;-72
2021/07/12 02:01:06;;;;;;;9.13;5.35;;;17.20;69.30;;;;;;5040780;28;20036;-71
2021/07/12 02:03:33;;;;;;;9.70;5.55;;;17.30;69.30;;;;;;5040375;28;20100;-71
2021/07/12 02:06:03;;;;;;;10.05;5.72;;;17.20;69.20;;;;;;5055603;28;20075;-72
2021/07/12 02:08:31;;;;;;;10.50;6.03;;;17.20;69.30;;;;;;5041141;28;20049;-71
2021/07/12 02:10:58;;;;;;;8.45;5.43;;;17.20;69.30;;;;;;5040092;28;20511;-71
2021/07/12 02:13:23;;;;;;;9.77;6.13;;;17.20;69.30;;;;;;5040198;28;20194;-72
2021/07/12 02:15:53;;;;;;;9.60;6.53;;;17.20;69.50;;;;;;5040300;28;20052;-71
2021/07/12 02:18:26;;;;;;;9.48;6.40;;;17.20;69.80;;;;;;5040193;28;20076;-71
2021/07/12 02:20:54;;;;;;;12.95;7.03;;;17.20;69.80;;;;;;5039614;28;20056;-71
2021/07/12 02:23:21;;;;;;;13.10;6.25;;;17.20;69.90;;;;;;5040175;28;20033;-71
2021/07/12 02:25:48;;;;;;;11.90;6.65;;;17.20;70.10;;;;;;5039935;28;20029;-72
2021/07/12 02:28:15;;;;;;;11.27;6.75;;;17.20;70.70;;;;;;5055426;28;20060;-72
2021/07/12 02:30:43;;;;;;;12.68;6.97;;;17.20;70.60;;;;;;5039729;28;20029;-72
2021/07/12 02:33:10;;;;;;;9.95;6.38;;;17.30;70.60;;;;;;5040187;28;20017;-72
2021/07/12 02:35:37;;;;;;;11.45;6.47;;;17.30;70.90;;;;;;5039364;28;20087;-71
2021/07/12 02:38:05;;;;;;;10.70;6.72;;;17.30;72.00;;;;;;5039800;28;20048;-72
2021/07/12 02:40:32;;;;;;;10.20;6.32;;;17.30;71.90;;;;;;5039585;28;20472;-72
2021/07/12 02:42:58;;;;;;;11.52;6.65;;;17.20;71.50;;;;;;5039858;28;20025;-72
2021/07/12 02:45:26;;;;;;;12.52;6.25;;;17.20;71.20;;;;;;5039639;28;20031;-72
2021/07/12 02:47:52;;;;;;;8.95;5.75;;;17.30;71.10;;;;;;5039716;28;20026;-72
2021/07/12 02:50:20;;;;;;;9.07;5.95;;;17.20;71.00;;;;;;5039263;28;20106;-72
2021/07/12 02:53:00;;;;;;;8.90;5.57;;;17.30;71.10;;;;;;5039723;28;20477;-72
2021/07/12 02:55:26;;;;;;;10.82;6.15;;;17.30;71.10;;;;;;5039557;28;20104;-72
2021/07/12 02:57:53;;;;;;;9.63;5.90;;;17.30;71.10;;;;;;5054874;28;20056;-72
2021/07/12 03:00:19;;;;;;;8.82;6.05;;;17.30;71.00;;;;;;5054697;28;20038;-72
2021/07/12 03:02:44;;;;;;;9.80;6.18;;;17.30;71.10;;;;;;5039638;28;20032;-72
2021/07/12 03:05:11;;;;;;;9.57;6.35;;;17.30;71.30;;;;;;5039038;28;20033;-72
2021/07/12 03:07:43;;;;;;;11.00;5.50;;;17.30;71.10;;;;;;5039261;28;20484;-72
2021/07/12 03:10:16;;;;;;;9.30;5.60;;;17.30;71.10;;;;;;5038959;28;20029;-72
2021/07/12 03:12:51;;;;;;;10.55;5.47;;;17.30;71.20;;;;;;5039324;28;20256;-72
2021/07/12 03:15:30;;;;;;;10.20;5.97;;;17.30;71.40;;;;;;5039375;28;20070;-72
2021/07/12 03:18:00;;;;;;;10.25;6.47;;;17.30;71.90;;;;;;5039206;28;20106;-72
2021/07/12 03:20:28;;;;;;;10.32;5.65;;;17.20;72.40;;;;;;5038474;28;20138;-72
2021/07/12 03:22:57;;;;;;;13.05;6.82;;;17.20;71.80;;;;;;5038856;28;20030;-72
2021/07/12 03:25:28;;;;;;;10.32;6.45;;;17.30;72.40;;;;;;5039069;28;20021;-72
2021/07/12 03:27:57;;;;;;;8.98;6.18;;;17.30;72.30;;;;;;5038843;28;20026;-72
2021/07/12 03:30:25;;;;;;;9.20;5.97;;;17.20;72.00;;;;;;5038706;28;20021;-72
2021/07/12 03:32:53;;;;;;;9.60;5.70;;;17.30;71.90;;;;;;5038707;28;20022;-72
2021/07/12 03:35:20;;;;;;;8.45;5.47;;;17.20;71.70;;;;;;5038760;28;20077;-72
2021/07/12 03:37:46;;;;;;;8.70;5.28;;;17.20;71.60;;;;;;5038693;28;20032;-71
2021/07/12 03:40:13;;;;;;;9.73;5.30;;;17.20;71.60;;;;;;5038587;28;20148;-72
2021/07/12 03:42:39;;;;;;;9.55;5.40;;;17.20;71.60;;;;;;5038876;28;20029;-71
2021/07/12 03:45:07;;;;;;;9.73;6.10;;;17.20;71.60;;;;;;5038576;28;20619;-72
2021/07/12 03:47:35;;;;;;;9.57;5.68;;;17.20;71.60;;;;;;5038271;28;20408;-71
2021/07/12 03:50:11;;;;;;;7.38;5.13;;;17.20;71.60;;;;;;5053456;28;20021;-72
2021/07/12 03:52:43;;;;;;;9.25;5.13;;;17.30;71.70;;;;;;5038718;28;20029;-72
2021/07/12 03:55:11;;;;;;;7.80;5.03;;;17.20;71.60;;;;;;5038257;28;20033;-71
2021/07/12 03:57:37;;;;;;;11.70;5.88;;;17.20;71.50;;;;;;5038384;28;20076;-71
2021/07/12 04:00:06;;;;;;;10.07;5.55;;;17.30;71.50;;;;;;5038372;28;20108;-72
2021/07/12 04:02:32;;;;;;;7.40;4.80;;;17.30;71.50;;;;;;5038461;28;20411;-72
2021/07/12 04:05:01;;;;;;;8.82;6.38;;;17.30;71.50;;;;;;5037946;28;20060;-71
2021/07/12 04:07:27;;;;;;;11.02;5.88;;;17.20;71.60;;;;;;5038443;28;20030;-71
2021/07/12 04:09:52;;;;;;;10.50;5.82;;;17.20;72.40;;;;;;5038163;28;20116;-72
2021/07/12 04:12:23;;;;;;;9.15;5.55;;;17.30;72.60;;;;;;5038120;28;20136;-71
2021/07/12 04:14:53;;;;;;;8.05;5.32;;;17.20;72.30;;;;;;5038159;28;20109;-72
2021/07/12 04:17:19;;;;;;;9.50;5.93;;;17.30;72.20;;;;;;5038216;28;20021;-72
2021/07/12 04:19:46;;;;;;;11.07;6.18;;;17.30;72.40;;;;;;5037418;28;20049;-72
2021/07/12 04:22:12;;;;;;;7.88;5.78;;;17.20;72.40;;;;;;5037966;28;20022;-72
2021/07/12 04:24:40;;;;;;;10.35;6.28;;;17.30;72.50;;;;;;5037777;28;20502;-72
2021/07/12 04:27:06;;;;;;;14.20;6.82;;;17.20;73.30;;;;;;5037850;28;20507;-72
2021/07/12 04:29:32;;;;;;;15.10;7.57;;;17.20;75.10;;;;;;5037609;28;20025;-72
2021/07/12 04:32:00;;;;;;;14.95;6.95;;;17.20;75.40;;;;;;5037923;28;20026;-72
2021/07/12 04:34:32;;;;;;;10.50;6.70;;;17.20;75.70;;;;;;5037549;28;20029;-72
2021/07/12 04:36:58;;;;;;;12.45;7.55;;;17.20;75.10;;;;;;5037605;28;20108;-72
2021/07/12 04:39:24;;;;;;;15.73;7.50;;;17.20;75.40;;;;;;5037743;28;20053;-72
2021/07/12 04:41:50;;;;;;;12.40;7.00;;;17.20;76.30;;;;;;5037415;28;20030;-72
2021/07/12 04:44:16;;;;;;;13.13;7.53;;;17.20;76.50;;;;;;5037700;28;20033;-72
2021/07/12 04:46:41;;;;;;;11.27;6.65;;;17.20;76.70;;;;;;5037454;28;20576;-72
2021/07/12 04:49:07;;;;;;;11.48;6.55;;;17.10;76.30;;;;;;5037171;28;20021;-72
2021/07/12 04:51:33;;;;;;;11.40;7.15;;;17.10;75.90;;;;;;5037431;28;20028;-72
2021/07/12 04:53:59;;;;;;;11.88;6.82;;;17.20;76.50;;;;;;5037312;28;20021;-72
2021/07/12 04:56:25;;;;;;;12.68;7.93;;;17.10;77.00;;;;;;5037329;28;20105;-72
2021/07/12 04:58:51;;;;;;;13.82;7.35;;;17.10;77.90;;;;;;5037316;28;20029;-72
2021/07/12 05:01:18;;;;;;;9.60;6.22;;;17.10;77.50;;;;;;5037387;28;20124;-72
2021/07/12 05:03:44;;;;;;;10.02;6.82;;;17.10;77.10;;;;;;5037395;28;20473;-72
2021/07/12 05:06:11;;;;;;;13.57;7.25;;;17.10;76.90;;;;;;5052515;28;20033;-72
2021/07/12 05:08:37;;;;;;;12.45;8.15;;;17.10;77.30;;;;;;5037454;28;20495;-72
2021/07/12 05:11:04;;;;;;;13.23;8.38;;;17.10;77.50;;;;;;5037034;28;20056;-72
2021/07/12 05:13:31;;;;;;;13.43;8.23;;;17.10;78.10;;;;;;5037368;28;20543;-72
2021/07/12 05:15:57;;;;;;;12.48;7.60;;;17.10;78.20;;;;;;5037229;28;20091;-72
2021/07/12 05:18:23;;;;;;;13.32;8.45;;;17.10;77.90;;;;;;5037251;28;20439;-72
2021/07/12 05:20:51;;;;;;;12.27;7.72;;;17.10;78.20;;;;;;5036592;28;20045;-72
2021/07/12 05:23:18;;;;;;;24.88;9.00;;;17.10;78.80;;;;;;5037220;28;20033;-72
2021/07/12 05:25:44;;;;;;;15.48;9.23;;;17.10;79.90;;;;;;5037078;28;20021;-71
2021/07/12 05:28:10;;;;;;;14.13;7.45;;;17.10;79.30;;;;;;5037477;28;20033;-69
2021/07/12 05:30:36;;;;;;;13.02;8.18;;;17.10;80.80;;;;;;5036986;28;20024;-70
2021/07/12 05:33:02;;;;;;;12.38;7.47;;;17.10;81.10;;;;;;5037148;28;20473;-68
2021/07/12 05:35:28;;;;;;;11.15;5.93;;;17.10;79.80;;;;;;5036914;28;20018;-68
2021/07/12 05:37:54;;;;;;;7.00;3.75;;;17.00;79.90;;;;;;5036904;28;20021;-68
2021/07/12 05:40:19;;;;;;;5.13;2.65;;;17.00;79.30;;;;;;5036843;28;20077;-69
2021/07/12 05:42:45;;;;;;;5.97;2.55;;;17.00;79.20;;;;;;5052392;28;20056;-69
2021/07/12 05:45:11;;;;;;;5.32;2.22;;;17.00;79.50;;;;;;5036819;28;20072;-69
2021/07/12 05:47:37;;;;;;;5.72;2.03;;;17.00;78.70;;;;;;5036998;28;20030;-67
2021/07/12 05:50:05;;;;;;;3.95;1.88;;;17.00;78.20;;;;;;5036582;28;20033;-69
2021/07/12 05:52:32;;;;;;;6.40;2.33;;;17.00;78.80;;;;;;5036899;28;20025;-68
2021/07/12 05:54:59;;;;;;;5.10;2.33;;;17.00;78.50;;;;;;5036960;28;20067;-67
2021/07/12 05:57:25;;;;;;;5.13;2.20;;;17.00;78.40;;;;;;5036959;28;20026;-69
2021/07/12 05:59:51;;;;;;;5.47;3.00;;;16.90;78.90;;;;;;5036866;28;20081;-67
2021/07/12 06:02:16;;;;;;;6.28;2.90;;;16.90;78.40;;;;;;5036943;28;20492;-67
2021/07/12 06:04:44;;;;;;;5.95;2.85;;;16.90;79.00;;;;;;5036556;28;20053;-68
2021/07/12 06:07:10;;;;;;;7.63;3.15;;;16.90;79.10;;;;;;5036931;28;20025;-68
2021/07/12 06:09:36;;;;;;;5.20;2.63;;;16.90;79.30;;;;;;5036654;28;20109;-69
2021/07/12 06:12:02;;;;;;;7.63;3.10;;;16.80;78.80;;;;;;5038633;28;20049;-68
2021/07/12 06:14:28;;;;;;;9.20;4.03;;;16.80;78.80;;;;;;5040256;28;20097;-68
2021/07/12 06:16:54;;;;;;;7.78;4.25;;;16.80;79.30;;;;;;5040624;28;20057;-67
2021/07/12 06:19:20;;;;;;;7.65;4.22;;;16.80;79.70;;;;;;5035717;28;20037;-68
2021/07/12 06:21:46;;;;;;;9.77;4.60;;;16.80;79.30;;;;;;5036118;28;20033;-68
2021/07/12 06:24:12;;;;;;;7.18;4.43;;;16.80;78.40;;;;;;5039169;28;20025;-68
2021/07/12 06:26:38;;;;;;;11.73;5.40;;;16.80;79.00;;;;;;5039979;28;20026;-67
2021/07/12 06:29:03;;;;;;;8.93;5.25;;;16.80;78.40;;;;;;5039333;28;20017;-68
2021/07/12 06:31:29;;;;;;;12.23;5.80;;;16.80;78.50;;;;;;5039792;28;20033;-68
2021/07/12 06:33:55;;;;;;;11.82;5.40;;;16.80;78.10;;;;;;5039479;28;20492;-68
2021/07/12 06:36:21;;;;;;;10.63;4.95;;;16.70;79.70;;;;;;5039901;28;20017;-68
2021/07/12 06:38:47;;;;;;;12.65;8.00;;;16.80;79.30;;;;;;5038768;28;20018;-68
2021/07/12 06:41:13;;;;;;;19.90;9.82;;;16.70;79.30;;;;;;5032226;28;20025;-68
2021/07/12 06:43:38;;;;;;;13.32;7.03;;;16.70;79.10;;;;;;5039132;28;20025;-68
2021/07/12 06:46:04;;;;;;;13.85;6.78;;;16.70;79.10;;;;;;5039745;28;20414;-68
2021/07/12 06:48:30;;;;;;;13.50;8.15;;;16.80;79.40;;;;;;5039232;28;20025;-68
2021/07/12 06:50:56;;;;;;;18.10;7.82;;;16.70;80.00;;;;;;5039392;28;20500;-68
2021/07/12 06:53:22;;;;;;;15.80;8.57;;;16.70;79.60;;;;;;5053820;28;20027;-68
2021/07/12 06:55:47;;;;;;;14.70;8.38;;;16.80;79.60;;;;;;5039100;28;20080;-68
2021/07/12 06:58:13;;;;;;;17.73;8.68;;;16.80;79.10;;;;;;5039016;28;20033;-68
2021/07/12 07:00:40;;;;;;;17.17;8.50;;;16.80;79.30;;;;;;5038600;28;20029;-68
2021/07/12 07:03:06;;;;;;;16.17;8.73;;;16.80;79.30;;;;;;5038666;28;20025;-68
2021/07/12 07:05:33;;;;;;;17.38;9.55;;;16.90;79.20;;;;;;5038911;28;20370;-70
2021/07/12 07:07:59;;;;;;;19.83;8.88;;;16.90;79.10;;;;;;5037733;28;20026;-68
2021/07/12 07:10:24;;;;;;;17.25;9.18;;;16.90;78.80;;;;;;5038736;28;20396;-68
2021/07/12 07:12:51;;;;;;;16.02;9.70;;;17.00;78.70;;;;;;5037592;28;20049;-70
2021/07/12 07:15:17;;;;;;;19.00;10.70;;;17.00;78.40;;;;;;5039056;28;20017;-69
2021/07/12 07:17:43;;;;;;;25.90;15.25;;;17.10;78.40;;;;;;5038774;28;20060;-68
2021/07/12 07:20:09;;;;;;;26.73;15.07;;;17.10;78.10;;;;;;5038176;28;20075;-67
2021/07/12 07:22:35;;;;;;;19.35;10.98;;;17.10;78.20;;;;;;5037997;28;20025;-69
2021/07/12 07:25:01;;;;;;;18.70;10.13;;;17.10;77.90;;;;;;5038501;28;20040;-70
2021/07/12 07:27:27;;;;;;;18.55;10.65;;;17.10;77.70;;;;;;5038904;28;20017;-70
2021/07/12 07:29:53;;;;;;;14.27;9.18;;;17.10;77.60;;;;;;5038508;28;20034;-70
2021/07/12 07:32:19;;;;;;;16.45;9.48;;;17.10;77.70;;;;;;5038683;28;20014;-70
2021/07/12 07:34:44;;;;;;;15.10;9.15;;;17.20;77.90;;;;;;5038405;28;20067;-69
2021/07/12 07:37:11;;;;;;;15.50;10.02;;;17.20;77.70;;;;;;5038215;28;20489;-69
2021/07/12 07:39:38;;;;;;;15.75;9.93;;;17.20;78.40;;;;;;5038456;28;20104;-70
2021/07/12 07:42:04;;;;;;;16.30;9.65;;;17.10;79.10;;;;;;5038189;28;20017;-70
2021/07/12 07:44:30;;;;;;;19.25;10.70;;;17.10;78.90;;;;;;5038258;28;20126;-70
2021/07/12 07:46:56;;;;;;;17.67;9.85;;;17.10;79.60;;;;;;5038443;28;20052;-69
2021/07/12 07:49:22;;;;;;;16.98;9.98;;;17.00;79.20;;;;;;5053626;28;20044;-69
2021/07/12 07:51:49;;;;;;;15.18;9.88;;;17.00;79.30;;;;;;5038207;28;20022;-69
2021/07/12 07:54:15;;;;;;;19.73;10.00;;;16.90;79.60;;;;;;5038363;28;20579;-69
2021/07/12 07:56:41;;;;;;;16.65;9.30;;;16.90;80.20;;;;;;5037559;28;20104;-69
2021/07/12 07:59:08;;;;;;;16.83;9.50;;;16.90;79.50;;;;;;5038347;28;20026;-69
2021/07/12 08:01:34;;;;;;;18.17;9.85;;;16.80;79.90;;;;;;5037414;28;20036;-69
2021/07/12 08:04:01;;;;;;;13.00;8.93;;;16.80;80.00;;;;;;5037683;28;20085;-70
2021/07/12 08:06:27;;;;;;;15.93;9.13;;;16.70;79.70;;;;;;5036536;28;20036;-69
2021/07/12 08:08:53;;;;;;;15.73;8.00;;;16.70;79.90;;;;;;5037127;28;20492;-69
2021/07/12 08:11:19;;;;;;;13.43;8.98;;;16.70;79.80;;;;;;5036948;28;20126;-69
2021/07/12 08:13:45;;;;;;;15.38;8.98;;;16.60;80.10;;;;;;5036636;28;20506;-69
2021/07/12 08:16:11;;;;;;;18.45;10.30;;;16.60;80.00;;;;;;5037201;28;20030;-69
2021/07/12 08:18:37;;;;;;;15.95;9.15;;;16.60;79.50;;;;;;5037439;28;20025;-69
2021/07/12 08:21:04;;;;;;;14.43;9.10;;;16.60;79.80;;;;;;5037453;28;20091;-69
2021/07/12 08:23:29;;;;;;;15.68;8.63;;;16.60;79.70;;;;;;5037835;28;20060;-68
2021/07/12 08:25:55;;;;;;;15.00;9.68;;;16.60;79.90;;;;;;5034947;28;20053;-68
2021/07/12 08:28:25;;;;;;;15.95;8.90;;;16.60;80.40;;;;;;5037834;28;20036;-68
2021/07/12 08:30:53;;;;;;;27.02;13.68;;;16.70;80.20;;;;;;5037527;28;20021;-68
2021/07/12 08:33:19;;;;;;;28.30;18.80;;;16.60;80.20;;;;;;5037691;28;20036;-68
2021/07/12 08:35:45;;;;;;;54.90;33.75;;;16.70;80.00;;;;;;5037015;28;20488;-69
2021/07/12 08:38:11;;;;;;;26.38;14.65;;;16.70;80.20;;;;;;5034360;28;20052;-68
2021/07/12 08:40:38;;;;;;;13.73;9.38;;;16.80;80.10;;;;;;5033955;28;20492;-69
2021/07/12 08:43:03;;;;;;;10.27;6.75;;;16.90;80.20;;;;;;5036831;28;20025;-68
2021/07/12 08:45:29;;;;;;;12.98;7.80;;;17.10;80.00;;;;;;5037085;28;20036;-68
2021/07/12 08:47:56;;;;;;;13.35;7.32;;;17.30;80.10;;;;;;5037474;28;20029;-68
2021/07/12 08:50:24;;;;;;;12.60;7.32;;;17.50;80.10;;;;;;5036684;28;20048;-68
2021/07/12 08:52:53;;;;;;;13.15;6.65;;;17.80;80.40;;;;;;5037438;28;20432;-69
2021/07/12 08:55:20;;;;;;;8.98;5.40;;;18.20;81.00;;;;;;5036780;28;20403;-68
2021/07/12 08:58:19;;;;;;;12.40;5.97;;;18.60;79.30;;;;;;5037222;28;20021;-68
2021/07/12 09:00:57;;;;;;;9.15;5.47;;;19.20;80.10;;;;;;5036072;28;20047;-69
2021/07/12 09:03:25;;;;;;;9.02;4.78;;;19.70;79.90;;;;;;5037073;28;20400;-69
2021/07/12 09:05:56;;;;;;;10.70;4.72;;;20.10;77.40;;;;;;5037073;28;20021;-68
2021/07/12 09:08:40;;;;;;;7.35;4.38;;;20.20;75.40;;;;;;5034323;28;20021;-69
2021/07/12 09:11:21;;;;;;;8.60;4.22;;;20.10;73.60;;;;;;5036712;28;20036;-68
2021/07/12 09:13:53;;;;;;;13.77;4.75;;;20.10;73.00;;;;;;5023728;28;20017;-69
2021/07/12 09:16:37;;;;;;;9.20;4.85;;;20.00;72.90;;;;;;5036701;28;20040;-69
2021/07/12 09:19:08;;;;;;;8.30;4.13;;;19.90;73.30;;;;;;5036298;28;20108;-69
2021/07/12 09:21:56;;;;;;;10.52;5.00;;;19.80;71.90;;;;;;5031988;28;20105;-69
2021/07/12 09:24:31;;;;;;;8.70;4.38;;;19.80;72.80;;;;;;5032288;28;20499;-68
2021/07/12 09:27:12;;;;;;;11.63;4.97;;;19.70;72.30;;;;;;5036603;28;20086;-69
2021/07/12 09:29:47;;;;;;;9.40;5.00;;;19.60;72.20;;;;;;5036580;28;20025;-69
2021/07/12 09:32:21;;;;;;;11.13;5.95;;;19.60;73.30;;;;;;5037030;28;20018;-68
2021/07/12 09:34:48;;;;;;;10.10;4.70;;;19.60;73.90;;;;;;5036814;28;20068;-68
2021/07/12 09:37:18;;;;;;;8.48;5.20;;;19.50;73.80;;;;;;5036636;28;20024;-69
2021/07/12 09:39:49;;;;;;;9.13;4.40;;;19.50;73.40;;;;;;5036716;28;20025;-68
2021/07/12 09:42:32;;;;;;;7.65;4.47;;;19.60;73.50;;;;;;5036742;28;20095;-68
2021/07/12 09:45:01;;;;;;;8.23;4.15;;;19.60;73.00;;;;;;5036844;28;20499;-68
2021/07/12 09:47:30;;;;;;;8.55;4.28;;;19.50;72.20;;;;;;5039303;28;20014;-68
2021/07/12 09:50:09;;;;;;;8.90;4.47;;;19.50;72.20;;;;;;5039517;28;20100;-69
2021/07/12 09:52:46;;;;;;;9.63;4.40;;;19.50;72.50;;;;;;5040298;28;20018;-68
2021/07/12 09:55:30;;;;;;;9.13;5.07;;;19.60;73.20;;;;;;5055246;28;20037;-69
2021/07/12 09:58:12;;;;;;;7.53;4.07;;;19.60;72.90;;;;;;5039922;28;20177;-68
2021/07/12 10:01:00;;;;;;;6.70;3.88;;;19.70;72.30;;;;;;5039380;28;20017;-68
2021/07/12 10:03:26;;;;;;;8.68;4.35;;;19.90;72.30;;;;;;5039744;28;20047;-69
2021/07/12 10:05:54;;;;;;;6.93;4.40;;;20.10;73.00;;;;;;5040039;28;20104;-69
2021/07/12 10:08:20;;;;;;;10.38;4.45;;;20.20;73.80;;;;;;5040189;28;20025;-68
2021/07/12 10:10:46;;;;;;;8.38;4.25;;;20.60;73.90;;;;;;5038755;28;20029;-68
2021/07/12 10:13:12;;;;;;;9.27;4.50;;;20.90;73.90;;;;;;5039413;28;20017;-68
2021/07/12 10:15:38;;;;;;;10.43;6.82;;;21.30;71.50;;;;;;5037661;28;20026;-68
2021/07/12 10:18:05;;;;;;;8.32;3.47;;;21.70;69.30;;;;;;5037206;28;20025;-68
2021/07/12 10:20:33;;;;;;;6.70;2.53;;;22.50;73.40;;;;;;5031022;28;20060;-68
2021/07/12 10:23:04;;;;;;;6.35;3.00;;;23.40;69.10;;;;;;5039659;28;20393;-68
2021/07/12 10:25:32;;;;;;;7.40;3.40;;;24.20;70.40;;;;;;5039800;28;20035;-68
2021/07/12 10:28:03;;;;;;;8.50;3.85;;;24.90;71.90;;;;;;5039800;28;20087;-68
2021/07/12 10:30:45;;;;;;;5.70;2.42;;;25.40;71.80;;;;;;5039660;28;20064;-68
2021/07/12 10:33:13;;;;;;;5.60;2.72;;;25.40;63.50;;;;;;5039723;28;20022;-69
2021/07/12 10:35:47;;;;;;;7.80;3.25;;;25.40;67.90;;;;;;5038994;28;20028;-68
2021/07/12 10:38:19;;;;;;;9.18;3.30;;;25.30;67.00;;;;;;5039570;28;20032;-68
2021/07/12 10:40:47;;;;;;;5.95;2.70;;;25.40;65.90;;;;;;5039293;28;20053;-69
2021/07/12 10:43:34;;;;;;;5.13;2.70;;;25.70;68.30;;;;;;5039566;28;20029;-68
2021/07/12 10:46:00;;;;;;;9.73;3.15;;;25.80;66.70;;;;;;5039339;28;20028;-70
2021/07/12 10:48:40;;;;;;;7.30;2.92;;;25.90;68.10;;;;;;5039413;28;20548;-69
2021/07/12 10:51:23;;;;;;;5.32;2.78;;;25.90;63.80;;;;;;5039519;28;20036;-70
2021/07/12 10:53:55;;;;;;;6.45;2.90;;;25.80;66.50;;;;;;5037028;28;20018;-69
2021/07/12 10:56:21;;;;;;;6.47;2.72;;;25.60;63.00;;;;;;5038486;28;20030;-68
2021/07/12 10:58:48;;;;;;;7.40;2.38;;;25.60;64.80;;;;;;5036273;28;20017;-68
2021/07/12 11:01:18;;;;;;;6.15;2.63;;;25.60;64.50;;;;;;5039109;28;20075;-68
2021/07/12 11:03:52;;;;;;;5.72;2.58;;;25.80;67.90;;;;;;5039266;28;20029;-68
2021/07/12 11:06:21;;;;;;;6.72;2.50;;;26.00;64.20;;;;;;5038519;28;20018;-68
2021/07/12 11:08:49;;;;;;;5.43;2.40;;;26.10;64.20;;;;;;5038785;28;20037;-68
2021/07/12 11:11:20;;;;;;;4.18;2.22;;;26.00;60.70;;;;;;5036942;28;20029;-69
2021/07/12 11:13:50;;;;;;;8.80;2.63;;;26.00;63.30;;;;;;5038267;28;20071;-70
2021/07/12 11:16:20;;;;;;;6.38;2.70;;;25.80;63.60;;;;;;5038560;28;20081;-71
2021/07/12 11:18:47;;;;;;;8.90;3.22;;;25.50;62.50;;;;;;5037603;28;20029;-69
2021/07/12 11:21:15;;;;;;;6.82;3.10;;;25.20;60.90;;;;;;5032402;28;20415;-70
2021/07/12 11:23:43;;;;;;;5.10;3.58;;;25.00;62.50;;;;;;5035896;28;20088;-69
2021/07/12 11:26:23;;;;;;;4.70;2.45;;;24.80;62.60;;;;;;5037747;28;20060;-70
2021/07/12 11:28:54;;;;;;;5.28;2.80;;;24.60;61.80;;;;;;5036863;28;20033;-70
2021/07/12 11:31:39;;;;;;;3.65;1.98;;;24.80;64.20;;;;;;5038378;28;20025;-70
2021/07/12 11:34:06;;;;;;;5.32;2.53;;;25.20;58.50;;;;;;5036110;28;20047;-71
2021/07/12 11:36:32;;;;;;;13.82;7.90;;;25.80;60.30;;;;;;5038076;28;20476;-71
2021/07/12 11:38:58;;;;;;;13.80;9.07;;;26.50;64.20;;;;;;5035929;28;20025;-71
2021/07/12 11:41:24;;;;;;;9.57;3.33;;;27.20;66.00;;;;;;5037863;28;20083;-72
2021/07/12 11:44:13;;;;;;;8.07;2.22;;;27.80;67.70;;;;;;5038255;28;20512;-72
2021/07/12 11:46:40;;;;;;;6.60;2.53;;;28.20;62.80;;;;;;5037551;28;20104;-72
2021/07/12 11:49:10;;;;;;;7.80;2.17;;;28.40;60.70;;;;;;5037580;28;20477;-72
2021/07/12 11:51:37;;;;;;;5.05;2.20;;;28.30;61.30;;;;;;5037823;28;20481;-72
2021/07/12 11:54:12;;;;;;;5.60;2.00;;;28.10;61.80;;;;;;5038029;28;20026;-72
2021/07/12 11:56:37;;;;;;;4.30;1.90;;;27.60;57.60;;;;;;5053285;28;20048;-72
2021/07/12 11:59:04;;;;;;;5.68;1.92;;;27.00;53.70;;;;;;5035314;28;20093;-71
2021/07/12 12:01:30;;;;;;;4.15;2.10;;;26.30;51.30;;;;;;5037524;28;20036;-71
2021/07/12 12:04:03;;;;;;;6.97;2.20;;;25.70;51.50;;;;;;5037705;28;20108;-71
2021/07/12 12:06:30;;;;;;;6.07;2.55;;;25.10;53.00;;;;;;5037464;28;20075;-71
2021/07/12 12:09:05;;;;;;;3.83;1.95;;;24.70;55.70;;;;;;5036834;28;20480;-71
2021/07/12 12:11:32;;;;;;;6.72;2.20;;;24.30;55.20;;;;;;5036668;28;20119;-71
2021/07/12 12:13:58;;;;;;;4.20;1.88;;;24.20;58.80;;;;;;5037460;28;20021;-70
2021/07/12 12:16:29;;;;;;;5.30;2.03;;;24.40;61.50;;;;;;5036145;28;20022;-71
2021/07/12 12:18:56;;;;;;;3.92;1.98;;;24.60;63.60;;;;;;5035077;28;20134;-72
2021/07/12 12:21:23;;;;;;;4.05;2.05;;;24.80;64.30;;;;;;5036644;28;20423;-71
2021/07/12 12:23:53;;;;;;;8.10;2.28;;;24.70;59.00;;;;;;5037603;28;20033;-72
2021/07/12 12:26:27;;;;;;;5.65;2.20;;;24.70;61.20;;;;;;5037068;28;20388;-71
2021/07/12 12:29:04;;;;;;;3.80;2.10;;;24.70;61.30;;;;;;5036938;28;20036;-71
2021/07/12 12:31:31;;;;;;;7.18;2.22;;;24.70;62.30;;;;;;5037258;28;20083;-71
2021/07/12 12:34:17;;;;;;;5.35;2.08;;;24.70;63.20;;;;;;5036658;28;20020;-71
2021/07/12 12:36:43;;;;;;;4.03;2.08;;;24.60;61.90;;;;;;5037153;28;20021;-71
2021/07/12 12:39:20;;;;;;;5.93;2.10;;;24.50;62.40;;;;;;5033662;28;20104;-71
2021/07/12 12:41:50;;;;;;;5.60;2.25;;;24.30;57.40;;;;;;5036953;28;20531;-71
2021/07/12 12:44:25;;;;;;;3.70;1.98;;;24.20;59.20;;;;;;5037066;28;20155;-71
2021/07/12 12:46:58;;;;;;;4.82;2.10;;;24.10;61.30;;;;;;5036841;28;20037;-71
2021/07/12 12:49:30;;;;;;;6.30;2.35;;;24.10;61.40;;;;;;5034918;28;20017;-72
2021/07/12 12:51:57;;;;;;;;;;;24.10;61.40;;;;;;5037196;28;20029;-72
2021/07/12 12:54:43;;;;;;;6.38;2.08;;;24.00;58.50;;;;;;5036808;28;19912;-71